Time,TemperatureF,DewpointF,PressureIn,WindDirection,WindDirectionDegrees,WindSpeedMPH,WindSpeedGustMPH,Humidity,HourlyPrecipIn,Conditions,Clouds,dailyrainin,SoftwareType,DateUTC
2013-04-02 00:03:00,35.0,13.0,29.56,WNW,293,2.0,4.0,39,0.00,,,-99.99,,2013-04-02 04:03:00,
2013-04-02 00:13:00,35.0,13.0,29.56,WNW,293,2.0,4.0,39,0.00,,,-99.99,,2013-04-02 04:13:00,
2013-04-02 00:23:00,36.0,13.0,29.56,WNW,290,3.0,7.0,39,0.00,,,-99.99,,2013-04-02 04:23:00,
2013-04-02 00:33:00,35.0,13.0,29.56,WNW,298,2.0,8.0,40,0.00,,,-99.99,,2013-04-02 04:33:00,
2013-04-02 00:43:00,35.0,13.0,29.56,WNW,298,2.0,8.0,40,0.00,,,-99.99,,2013-04-02 04:43:00,
2013-04-02 00:53:00,35.0,13.0,29.56,WNW,297,3.0,10.0,40,0.00,,,-99.99,,2013-04-02 04:53:00,
2013-04-02 01:02:00,34.0,12.0,29.57,WNW,295,3.0,11.0,40,0.00,,,-99.99,,2013-04-02 05:02:00,
2013-04-02 01:12:00,34.0,12.0,29.57,WNW,295,3.0,11.0,40,0.00,,,-99.99,,2013-04-02 05:12:00,
2013-04-02 01:22:00,34.0,12.0,29.59,WNW,298,4.0,9.0,40,0.00,,,-99.99,,2013-04-02 05:22:00,
2013-04-02 01:32:00,34.0,12.0,29.59,WNW,301,4.0,9.0,40,0.00,,,-99.99,,2013-04-02 05:32:00,
2013-04-02 01:42:00,34.0,12.0,29.59,WNW,301,4.0,9.0,40,0.00,,,-99.99,,2013-04-02 05:42:00,
2013-04-02 01:52:00,34.0,13.0,29.59,WNW,297,2.0,6.0,41,0.00,,,-99.99,,2013-04-02 05:52:00,
2013-04-02 02:02:00,34.0,13.0,29.59,WNW,292,4.0,8.0,41,0.00,,,-99.99,,2013-04-02 06:02:00,
2013-04-02 02:12:00,34.0,13.0,29.59,WNW,292,4.0,8.0,41,0.00,,,-99.99,,2013-04-02 06:12:00,
2013-04-02 02:22:00,33.0,11.0,29.59,NW,306,3.0,8.0,40,0.00,,,-99.99,,2013-04-02 06:22:00,
2013-04-02 02:32:00,33.0,11.0,29.59,WNW,294,5.0,9.0,40,0.00,,,-99.99,,2013-04-02 06:32:00,
2013-04-02 02:42:00,33.0,11.0,29.59,WNW,294,5.0,9.0,40,0.00,,,-99.99,,2013-04-02 06:42:00,
2013-04-02 02:52:00,33.0,12.0,29.59,WNW,291,4.0,8.0,41,0.00,,,-99.99,,2013-04-02 06:52:00,
2013-04-02 03:02:00,33.0,12.0,29.59,WNW,293,3.0,8.0,41,0.00,,,-99.99,,2013-04-02 07:02:00,
2013-04-02 03:12:00,33.0,12.0,29.59,WNW,293,3.0,8.0,41,0.00,,,-99.99,,2013-04-02 07:12:00,
2013-04-02 03:22:00,33.0,12.0,29.59,WNW,294,4.0,8.0,41,0.00,,,-99.99,,2013-04-02 07:22:00,
2013-04-02 03:32:00,32.0,12.0,29.59,WNW,291,3.0,8.0,43,0.00,,,-99.99,,2013-04-02 07:32:00,
2013-04-02 03:42:00,32.0,12.0,29.59,WNW,291,3.0,8.0,43,0.00,,,-99.99,,2013-04-02 07:42:00,
2013-04-02 03:53:00,32.0,12.0,29.59,WNW,293,2.0,6.0,43,0.00,,,-99.99,,2013-04-02 07:53:00,
2013-04-02 04:02:00,31.0,12.0,29.59,WNW,286,2.0,4.0,44,0.00,,,-99.99,,2013-04-02 08:02:00,
2013-04-02 04:13:00,31.0,12.0,29.59,WNW,286,2.0,4.0,44,0.00,,,-99.99,,2013-04-02 08:13:00,
2013-04-02 04:22:00,31.0,12.0,29.59,WNW,291,2.0,5.0,45,0.00,,,-99.99,,2013-04-02 08:22:00,
2013-04-02 04:32:00,31.0,12.0,29.59,WNW,294,2.0,4.0,45,0.00,,,-99.99,,2013-04-02 08:32:00,
2013-04-02 04:42:00,31.0,12.0,29.59,WNW,294,2.0,4.0,45,0.00,,,-99.99,,2013-04-02 08:42:00,
2013-04-02 04:52:00,31.0,13.0,29.59,WNW,295,2.0,3.0,46,0.00,,,-99.99,,2013-04-02 08:52:00,
2013-04-02 05:02:00,31.0,13.0,29.59,WNW,289,2.0,4.0,47,0.00,,,-99.99,,2013-04-02 09:02:00,
2013-04-02 05:12:00,31.0,13.0,29.59,WNW,289,2.0,4.0,47,0.00,,,-99.99,,2013-04-02 09:12:00,
2013-04-02 05:22:00,30.0,12.0,29.59,WNW,288,1.0,3.0,47,0.00,,,-99.99,,2013-04-02 09:22:00,
2013-04-02 05:32:00,30.0,13.0,29.59,WNW,288,2.0,4.0,48,0.00,,,-99.99,,2013-04-02 09:32:00,
2013-04-02 05:43:00,30.0,13.0,29.59,WNW,288,2.0,4.0,48,0.00,,,-99.99,,2013-04-02 09:43:00,
2013-04-02 05:53:00,30.0,13.0,29.59,WNW,286,1.0,3.0,48,0.00,,,-99.99,,2013-04-02 09:53:00,
2013-04-02 06:03:00,30.0,14.0,29.59,WNW,285,1.0,3.0,50,0.00,,,-99.99,,2013-04-02 10:03:00,
2013-04-02 06:13:00,30.0,14.0,29.59,WNW,285,1.0,3.0,50,0.00,,,-99.99,,2013-04-02 10:13:00,
2013-04-02 06:23:00,30.0,14.0,29.59,WNW,290,2.0,4.0,50,0.00,,,-99.99,,2013-04-02 10:23:00,
2013-04-02 06:33:00,31.0,13.0,29.60,WNW,297,2.0,5.0,47,0.00,,,-99.99,,2013-04-02 10:33:00,
2013-04-02 06:42:00,31.0,13.0,29.60,WNW,297,2.0,5.0,47,0.00,,,-99.99,,2013-04-02 10:42:00,
2013-04-02 06:52:00,31.0,12.0,29.62,WNW,295,4.0,8.0,45,0.00,,,-99.99,,2013-04-02 10:52:00,
2013-04-02 07:02:00,31.0,13.0,29.62,WNW,292,3.0,8.0,46,0.00,,,-99.99,,2013-04-02 11:02:00,
2013-04-02 07:12:00,31.0,13.0,29.62,WNW,292,3.0,8.0,46,0.00,,,-99.99,,2013-04-02 11:12:00,
2013-04-02 07:22:00,31.0,13.0,29.62,WNW,286,4.0,9.0,47,0.00,,,-99.99,,2013-04-02 11:22:00,
2013-04-02 07:33:00,31.0,13.0,29.62,WNW,294,3.0,8.0,47,0.00,,,-99.99,,2013-04-02 11:33:00,
2013-04-02 07:43:00,31.0,13.0,29.62,WNW,294,3.0,8.0,47,0.00,,,-99.99,,2013-04-02 11:43:00,
2013-04-02 07:53:00,-999.0,-99.9,-100.00,NW,307,3.0,-999.0,-999,-99.99,,,-99.99,,2013-04-02 11:53:00,
2013-04-02 08:02:00,35.0,15.0,29.62,WNW,292,3.0,8.0,44,0.00,,,-99.99,,2013-04-02 12:02:00,
2013-04-02 08:12:00,35.0,15.0,29.62,WNW,292,3.0,8.0,44,0.00,,,-99.99,,2013-04-02 12:12:00,
2013-04-02 08:23:00,37.0,15.0,29.62,WNW,301,3.0,8.0,40,0.00,,,-99.99,,2013-04-02 12:23:00,
2013-04-02 08:32:00,38.0,16.0,29.62,WNW,298,4.0,9.0,41,0.00,,,-99.99,,2013-04-02 12:32:00,
2013-04-02 08:42:00,38.0,16.0,29.62,WNW,298,4.0,9.0,41,0.00,,,-99.99,,2013-04-02 12:42:00,
2013-04-02 08:53:00,38.0,15.0,29.62,WNW,297,4.0,10.0,39,0.00,,,-99.99,,2013-04-02 12:53:00,
2013-04-02 09:02:00,39.0,16.0,29.62,WNW,297,5.0,10.0,38,0.00,,,-99.99,,2013-04-02 13:02:00,
2013-04-02 09:12:00,40.0,16.0,29.62,WNW,297,3.0,10.0,37,0.00,,,-99.99,,2013-04-02 13:12:00,
2013-04-02 09:22:00,40.0,16.0,29.62,WNW,297,3.0,10.0,37,0.00,,,-99.99,,2013-04-02 13:22:00,
2013-04-02 09:33:00,38.0,16.0,29.62,WNW,295,4.0,9.0,40,0.00,,,-99.99,,2013-04-02 13:33:00,
2013-04-02 09:42:00,38.0,16.0,29.62,WNW,295,4.0,9.0,40,0.00,,,-99.99,,2013-04-02 13:42:00,
2013-04-02 09:52:00,41.0,16.0,29.62,West,279,4.0,7.0,36,0.00,,,-99.99,,2013-04-02 13:52:00,
2013-04-02 10:02:00,41.0,15.0,29.62,WNW,298,5.0,9.0,35,0.00,,,-99.99,,2013-04-02 14:02:00,
2013-04-02 10:12:00,41.0,15.0,29.62,WNW,298,5.0,9.0,35,0.00,,,-99.99,,2013-04-02 14:12:00,
2013-04-02 10:23:00,42.0,16.0,29.62,WNW,296,5.0,10.0,34,0.00,,,-99.99,,2013-04-02 14:23:00,
2013-04-02 10:32:00,42.0,16.0,29.62,WNW,288,4.0,8.0,35,0.00,,,-99.99,,2013-04-02 14:32:00,
2013-04-02 10:42:00,42.0,16.0,29.62,WNW,288,4.0,8.0,35,0.00,,,-99.99,,2013-04-02 14:42:00,
2013-04-02 10:52:00,40.0,15.0,29.62,WNW,295,4.0,9.0,36,0.00,,,-99.99,,2013-04-02 14:52:00,
2013-04-02 11:02:00,44.0,17.0,29.62,WNW,289,6.0,12.0,33,0.00,,,-99.99,,2013-04-02 15:02:00,
2013-04-02 11:11:00,44.0,17.0,29.62,WNW,289,6.0,12.0,33,0.00,,,-99.99,,2013-04-02 15:11:00,
2013-04-02 11:22:00,43.0,16.0,29.62,WNW,290,5.0,10.0,33,0.00,,,-99.99,,2013-04-02 15:22:00,
2013-04-02 11:33:00,44.0,16.0,29.62,WNW,296,6.0,12.0,32,0.00,,,-99.99,,2013-04-02 15:33:00,
2013-04-02 11:43:00,44.0,16.0,29.62,WNW,296,6.0,12.0,32,0.00,,,-99.99,,2013-04-02 15:43:00,
2013-04-02 11:58:00,45.0,16.0,29.62,WNW,289,5.0,9.0,31,0.00,,,-99.99,,2013-04-02 15:58:00,
2013-04-02 12:04:00,45.0,16.0,29.62,WNW,289,5.0,9.0,31,0.00,,,-99.99,,2013-04-02 16:04:00,
2013-04-02 12:13:00,45.0,16.0,29.62,WNW,289,5.0,9.0,31,0.00,,,-99.99,,2013-04-02 16:13:00,
2013-04-02 12:24:00,44.0,15.0,29.62,WNW,291,5.0,9.0,30,0.00,,,-99.99,,2013-04-02 16:24:00,
2013-04-02 12:36:00,46.0,16.0,29.62,WNW,287,5.0,12.0,29,0.00,,,-99.99,,2013-04-02 16:36:00,
2013-04-02 12:44:00,46.0,16.0,29.62,WNW,287,5.0,12.0,29,0.00,,,-99.99,,2013-04-02 16:44:00,
2013-04-02 12:53:00,46.0,15.0,29.62,WNW,291,5.0,11.0,28,0.00,,,-99.99,,2013-04-02 16:53:00,
2013-04-02 13:05:00,48.0,14.0,29.62,West,273,3.0,9.0,25,0.00,,,-99.99,,2013-04-02 17:05:00,
2013-04-02 13:13:00,48.0,14.0,29.62,West,273,3.0,9.0,25,0.00,,,-99.99,,2013-04-02 17:13:00,
2013-04-02 13:25:00,46.0,15.0,29.62,WNW,293,5.0,11.0,28,0.00,,,-99.99,,2013-04-02 17:25:00,
2013-04-02 13:35:00,46.0,15.0,29.62,WNW,293,5.0,11.0,28,0.00,,,-99.99,,2013-04-02 17:35:00,
2013-04-02 13:43:00,46.0,15.0,29.62,WNW,293,5.0,11.0,28,0.00,,,-99.99,,2013-04-02 17:43:00,
2013-04-02 13:56:00,50.0,14.0,29.62,NW,307,4.0,8.0,23,0.00,,,-99.99,,2013-04-02 17:56:00,
2013-04-02 14:04:00,47.0,13.0,29.62,WNW,294,6.0,10.0,25,0.00,,,-99.99,,2013-04-02 18:04:00,
2013-04-02 14:13:00,47.0,13.0,29.62,WNW,294,6.0,10.0,25,0.00,,,-99.99,,2013-04-02 18:13:00,
2013-04-02 14:23:00,47.0,14.0,29.62,WNW,282,5.0,11.0,26,0.00,,,-99.99,,2013-04-02 18:23:00,
2013-04-02 14:34:00,46.0,12.0,29.62,WNW,294,6.0,11.0,25,0.00,,,-99.99,,2013-04-02 18:34:00,
2013-04-02 14:43:00,46.0,12.0,29.62,WNW,294,6.0,11.0,25,0.00,,,-99.99,,2013-04-02 18:43:00,
2013-04-02 14:57:00,46.0,12.0,29.62,WNW,290,5.0,10.0,25,0.00,,,-99.99,,2013-04-02 18:57:00,
2013-04-02 15:03:00,44.0,12.0,29.62,WNW,293,5.0,12.0,27,0.00,,,-99.99,,2013-04-02 19:03:00,
2013-04-02 15:13:00,44.0,12.0,29.62,WNW,293,5.0,12.0,27,0.00,,,-99.99,,2013-04-02 19:13:00,
2013-04-02 15:23:00,46.0,12.0,29.59,WNW,290,6.0,11.0,25,0.00,,,-99.99,,2013-04-02 19:23:00,
2013-04-02 15:34:00,46.0,12.0,29.59,WNW,290,6.0,11.0,25,0.00,,,-99.99,,2013-04-02 19:34:00,
2013-04-02 15:47:00,46.0,12.0,29.59,WNW,290,6.0,11.0,25,0.00,,,-99.99,,2013-04-02 19:47:00,
2013-04-02 15:57:00,45.0,12.0,29.59,WNW,288,5.0,9.0,26,0.00,,,-99.99,,2013-04-02 19:57:00,
2013-04-02 16:03:00,43.0,11.0,29.59,WNW,291,5.0,13.0,27,0.00,,,-99.99,,2013-04-02 20:03:00,
2013-04-02 16:14:00,43.0,11.0,29.59,WNW,291,5.0,13.0,27,0.00,,,-99.99,,2013-04-02 20:14:00,
2013-04-02 16:22:00,46.0,12.0,29.59,West,281,5.0,8.0,25,0.00,,,-99.99,,2013-04-02 20:22:00,
2013-04-02 16:34:00,43.0,10.0,29.59,WNW,292,6.0,11.0,26,0.00,,,-99.99,,2013-04-02 20:34:00,
2013-04-02 16:44:00,43.0,10.0,29.59,WNW,292,6.0,11.0,26,0.00,,,-99.99,,2013-04-02 20:44:00,
2013-04-02 16:53:00,43.0,10.0,29.59,WNW,292,6.0,11.0,26,0.00,,,-99.99,,2013-04-02 20:53:00,
2013-04-02 17:04:00,42.0,10.0,29.59,WNW,289,5.0,10.0,26,0.00,,,-99.99,,2013-04-02 21:04:00,
2013-04-02 17:13:00,42.0,10.0,29.59,WNW,289,5.0,10.0,26,0.00,,,-99.99,,2013-04-02 21:13:00,
2013-04-02 17:23:00,42.0,10.0,29.59,WNW,293,5.0,10.0,27,0.00,,,-99.99,,2013-04-02 21:23:00,
2013-04-02 17:34:00,42.0,10.0,29.59,WNW,292,5.0,10.0,26,0.00,,,-99.99,,2013-04-02 21:34:00,
2013-04-02 17:44:00,42.0,10.0,29.59,WNW,292,5.0,10.0,26,0.00,,,-99.99,,2013-04-02 21:44:00,
2013-04-02 17:54:00,41.0,9.0,29.61,WNW,293,5.0,11.0,26,0.00,,,-99.99,,2013-04-02 21:54:00,
2013-04-02 18:04:00,42.0,10.0,29.62,WNW,291,5.0,8.0,27,0.00,,,-99.99,,2013-04-02 22:04:00,
2013-04-02 18:14:00,42.0,10.0,29.62,WNW,291,5.0,8.0,27,0.00,,,-99.99,,2013-04-02 22:14:00,
2013-04-02 18:24:00,41.0,10.0,29.62,WNW,301,5.0,9.0,27,0.00,,,-99.99,,2013-04-02 22:24:00,
2013-04-02 18:33:00,42.0,10.0,29.62,WNW,295,5.0,10.0,26,0.00,,,-99.99,,2013-04-02 22:33:00,
2013-04-02 18:43:00,42.0,10.0,29.62,WNW,295,5.0,10.0,26,0.00,,,-99.99,,2013-04-02 22:43:00,
2013-04-02 18:54:00,42.0,10.0,29.62,WNW,288,5.0,9.0,27,0.00,,,-99.99,,2013-04-02 22:54:00,
2013-04-02 19:03:00,41.0,10.0,29.62,WNW,294,4.0,9.0,27,0.00,,,-99.99,,2013-04-02 23:03:00,
2013-04-02 19:13:00,40.0,10.0,29.62,WNW,296,5.0,9.0,28,0.00,,,-99.99,,2013-04-02 23:13:00,
2013-04-02 19:23:00,40.0,10.0,29.62,WNW,296,5.0,9.0,28,0.00,,,-99.99,,2013-04-02 23:23:00,
2013-04-02 19:35:00,39.0,9.0,29.62,WNW,289,4.0,8.0,28,0.00,,,-99.99,,2013-04-02 23:35:00,
2013-04-02 19:43:00,39.0,9.0,29.62,WNW,289,4.0,8.0,28,0.00,,,-99.99,,2013-04-02 23:43:00,
2013-04-02 19:54:00,38.0,9.0,29.62,WNW,296,4.0,10.0,29,0.00,,,-99.99,,2013-04-02 23:54:00,
2013-04-02 20:04:00,38.0,9.0,29.62,WNW,296,3.0,8.0,29,0.00,,,-99.99,,2013-04-03 00:04:00,
2013-04-02 20:13:00,38.0,9.0,29.62,WNW,296,3.0,8.0,29,0.00,,,-99.99,,2013-04-03 00:13:00,
2013-04-02 20:24:00,38.0,9.0,29.62,WNW,287,4.0,7.0,30,0.00,,,-99.99,,2013-04-03 00:24:00,
2013-04-02 20:33:00,37.0,8.0,29.65,WNW,290,3.0,7.0,30,0.00,,,-99.99,,2013-04-03 00:33:00,
2013-04-02 20:47:00,37.0,8.0,29.65,WNW,290,3.0,7.0,30,0.00,,,-99.99,,2013-04-03 00:47:00,
2013-04-02 20:53:00,38.0,9.0,29.65,WNW,296,4.0,11.0,30,0.00,,,-99.99,,2013-04-03 00:53:00,
2013-04-02 21:04:00,38.0,9.0,29.65,WNW,290,4.0,7.0,30,0.00,,,-99.99,,2013-04-03 01:04:00,
2013-04-02 21:12:00,38.0,9.0,29.65,WNW,290,4.0,7.0,30,0.00,,,-99.99,,2013-04-03 01:12:00,
2013-04-02 21:23:00,37.0,8.0,29.65,WNW,300,3.0,6.0,30,0.00,,,-99.99,,2013-04-03 01:23:00,
2013-04-02 21:33:00,37.0,9.0,29.65,WNW,288,2.0,5.0,31,0.00,,,-99.99,,2013-04-03 01:33:00,
2013-04-02 21:42:00,37.0,9.0,29.65,WNW,288,2.0,5.0,31,0.00,,,-99.99,,2013-04-03 01:42:00,
2013-04-02 21:53:00,37.0,8.0,29.65,WNW,293,3.0,7.0,30,0.00,,,-99.99,,2013-04-03 01:53:00,
2013-04-02 22:03:00,37.0,9.0,29.65,WNW,292,3.0,7.0,31,0.00,,,-99.99,,2013-04-03 02:03:00,
2013-04-02 22:13:00,37.0,9.0,29.65,WNW,292,3.0,7.0,31,0.00,,,-99.99,,2013-04-03 02:13:00,
2013-04-02 22:24:00,37.0,12.0,29.65,WNW,282,1.0,5.0,35,0.00,,,-99.99,,2013-04-03 02:24:00,
2013-04-02 22:34:00,37.0,12.0,29.65,WNW,289,1.0,5.0,35,0.00,,,-99.99,,2013-04-03 02:34:00,
2013-04-02 22:43:00,37.0,12.0,29.65,WNW,289,1.0,5.0,35,0.00,,,-99.99,,2013-04-03 02:43:00,
2013-04-02 22:53:00,36.0,12.0,29.67,WNW,299,2.0,5.0,36,0.00,,,-99.99,,2013-04-03 02:53:00,
2013-04-02 23:05:00,36.0,12.0,29.68,WNW,293,2.0,6.0,36,0.00,,,-99.99,,2013-04-03 03:05:00,
2013-04-02 23:14:00,36.0,12.0,29.68,WNW,293,2.0,6.0,36,0.00,,,-99.99,,2013-04-03 03:14:00,
2013-04-02 23:23:00,36.0,12.0,29.68,WNW,295,3.0,7.0,36,0.00,,,-99.99,,2013-04-03 03:23:00,
2013-04-02 23:37:00,36.0,11.0,29.68,WNW,293,3.0,8.0,35,0.00,,,-99.99,,2013-04-03 03:37:00,
2013-04-02 23:44:00,36.0,11.0,29.68,WNW,293,3.0,8.0,35,0.00,,,-99.99,,2013-04-03 03:44:00,
2013-04-02 23:54:00,36.0,11.0,29.68,WNW,298,4.0,8.0,35,0.00,,,-99.99,,2013-04-03 03:54:00,